Time;durP1;ratioP1;P1;durP2;ratioP2;P2;SDS_P1;SDS_P2;PMS_P1;PMS_P2;Temp;Humidity;BMP_temperature;BMP_pressure;BME280_temperature;BME280_humidity;BME280_pressure;Samples;Min_cycle;Max_cycle;Signal;HPM_P1;HPM_P2
2022/10/30 00:02:22;;;;;;;9.4;3.7;;;;;;;11.97;80.34863;943.9503;;;;
2022/10/30 00:04:52;;;;;;;9.5;4;;;;;;;12.03;79.84473;943.9705;;;;
2022/10/30 00:07:17;;;;;;;10.1;4;;;;;;;11.96;80.2207;943.9829;;;;
2022/10/30 00:09:44;;;;;;;11.9;4.4;;;;;;;11.83;80.58691;943.9149;;;;
2022/10/30 00:12:09;;;;;;;11;4.2;;;;;;;11.85;80.27148;943.8848;;;;
2022/10/30 00:14:36;;;;;;;13.1;4.2;;;;;;;11.84;80.2666;943.9677;;;;
2022/10/30 00:17:01;;;;;;;7.4;3.9;;;;;;;11.88;79.93066;943.9875;;;;
2022/10/30 00:19:26;;;;;;;11.7;3.6;;;;;;;11.96;79.5332;943.9334;;;;
2022/10/30 00:21:51;;;;;;;13.4;4.2;;;;;;;11.99;79.23047;943.8795;;;;
2022/10/30 00:24:16;;;;;;;11.8;3.9;;;;;;;11.89;79.54297;943.883;;;;
2022/10/30 00:26:42;;;;;;;13;4.1;;;;;;;11.9;79.56738;943.8942;;;;
2022/10/30 00:29:09;;;;;;;9.2;3.6;;;;;;;11.78;79.88965;943.7867;;;;
2022/10/30 00:31:34;;;;;;;9.2;4;;;;;;;11.73;80.17969;943.8603;;;;
2022/10/30 00:34:01;;;;;;;10.1;4.3;;;;;;;11.68;80.4668;943.8875;;;;
2022/10/30 00:36:26;;;;;;;9.6;5.1;;;;;;;11.66;80.32617;943.8337;;;;
2022/10/30 00:38:53;;;;;;;11.5;4.2;;;;;;;11.55;80.85547;943.8606;;;;
2022/10/30 00:41:18;;;;;;;8.9;4;;;;;;;11.53;81.0791;943.8339;;;;
2022/10/30 00:43:46;;;;;;;10;4.1;;;;;;;11.56;81.03809;943.8065;;;;
2022/10/30 00:46:11;;;;;;;9.9;3.8;;;;;;;11.58;80.88379;943.7836;;;;
2022/10/30 00:48:36;;;;;;;11.2;4.2;;;;;;;11.56;80.92383;943.765;;;;
2022/10/30 00:51:01;;;;;;;10.5;4.3;;;;;;;11.55;81.07324;943.7481;;;;
2022/10/30 00:53:28;;;;;;;11.9;4.7;;;;;;;11.57;80.88184;943.6806;;;;
2022/10/30 00:55:54;;;;;;;10.4;3.9;;;;;;;11.66;80.61035;943.6501;;;;
2022/10/30 00:58:22;;;;;;;7.3;3.7;;;;;;;11.46;81.19141;943.6375;;;;
2022/10/30 01:00:48;;;;;;;11.6;4.7;;;;;;;11.38;81.60156;943.6887;;;;
2022/10/30 01:03:13;;;;;;;9.5;4.2;;;;;;;11.38;81.38379;943.6537;;;;
2022/10/30 01:05:38;;;;;;;9.1;3.8;;;;;;;11.37;81.2793;943.6495;;;;
2022/10/30 01:08:03;;;;;;;10.8;4.4;;;;;;;11.35;81.37695;943.6356;;;;
2022/10/30 01:10:30;;;;;;;14.8;4.5;;;;;;;11.26;81.875;943.6111;;;;
2022/10/30 01:12:55;;;;;;;9.2;4.5;;;;;;;11;83.10742;943.6369;;;;
2022/10/30 01:15:22;;;;;;;10.6;4.1;;;;;;;10.93;83.92578;943.6675;;;;
2022/10/30 01:17:47;;;;;;;9.6;4.3;;;;;;;11.01;83.55469;943.6261;;;;
2022/10/30 01:20:12;;;;;;;9.3;3.8;;;;;;;11.06;83.41504;943.6348;;;;
2022/10/30 01:22:37;;;;;;;9.1;3.8;;;;;;;11.18;82.7627;943.5483;;;;
2022/10/30 01:25:04;;;;;;;10;3.2;;;;;;;11.12;82.83203;943.5474;;;;
2022/10/30 01:27:29;;;;;;;8.8;3.4;;;;;;;11.11;82.89941;943.5934;;;;
2022/10/30 01:29:54;;;;;;;11.4;3.4;;;;;;;11.15;82.80371;943.5208;;;;
2022/10/30 01:32:20;;;;;;;9.4;3.6;;;;;;;11.17;82.56641;943.553;;;;
2022/10/30 01:34:47;;;;;;;9.1;3.9;;;;;;;11.31;82.02246;943.5322;;;;
2022/10/30 01:37:12;;;;;;;7.4;3.3;;;;;;;11.34;81.73047;943.5247;;;;
2022/10/30 01:39:38;;;;;;;8.8;3;;;;;;;11.29;82.07617;943.4729;;;;
2022/10/30 01:42:06;;;;;;;7.9;3.3;;;;;;;11.31;82.03418;943.4797;;;;
2022/10/30 01:44:43;;;;;;;9.6;3.5;;;;;;;11.41;81.34375;943.5105;;;;
2022/10/30 01:47:11;;;;;;;5.5;3.3;;;;;;;11.42;81.34668;943.4441;;;;
2022/10/30 01:49:58;;;;;;;8.6;3.4;;;;;;;11.28;81.87793;943.5317;;;;
2022/10/30 01:52:23;;;;;;;12;3.1;;;;;;;11.35;81.53711;943.3972;;;;
2022/10/30 01:54:50;;;;;;;11.6;4;;;;;;;11.48;80.77344;943.3477;;;;
2022/10/30 01:57:15;;;;;;;8.6;3.4;;;;;;;11.59;80.21094;943.4162;;;;
2022/10/30 01:59:41;;;;;;;9.3;3.4;;;;;;;11.47;80.65723;943.392;;;;
2022/10/30 02:02:06;;;;;;;8.8;3.2;;;;;;;11.36;80.95605;943.4172;;;;
2022/10/30 02:04:32;;;;;;;13.1;3.3;;;;;;;11.33;81.14453;943.3723;;;;
2022/10/30 02:06:57;;;;;;;9.3;3.3;;;;;;;11.38;80.85645;943.3108;;;;
2022/10/30 02:09:22;;;;;;;11.8;3.6;;;;;;;11.43;80.49023;943.3414;;;;
2022/10/30 02:11:47;;;;;;;11.2;3.9;;;;;;;11.14;81.91113;943.3261;;;;
2022/10/30 02:14:15;;;;;;;8.8;3.1;;;;;;;10.89;83.20996;943.2381;;;;
2022/10/30 02:16:40;;;;;;;10.5;4;;;;;;;11.01;82.54883;943.1667;;;;
2022/10/30 02:19:08;;;;;;;9.7;3.4;;;;;;;11.09;81.62695;943.2026;;;;
2022/10/30 02:21:33;;;;;;;9.4;3.7;;;;;;;11.12;81.09473;943.2444;;;;
2022/10/30 02:24:03;;;;;;;7.7;3.2;;;;;;;11.12;81.11719;943.2604;;;;
2022/10/30 02:26:34;;;;;;;8.7;3;;;;;;;11.05;81.61816;943.2473;;;;
2022/10/30 02:28:59;;;;;;;5;2.9;;;;;;;11.01;82.14844;943.2911;;;;
2022/10/30 02:31:30;;;;;;;8.8;2.6;;;;;;;10.99;82.4082;943.1855;;;;
2022/10/30 02:34:00;;;;;;;8.2;3.3;;;;;;;10.9;82.96094;943.1984;;;;
2022/10/30 02:36:30;;;;;;;9.1;2.8;;;;;;;10.8;83.53711;943.2437;;;;
2022/10/30 02:38:56;;;;;;;6.2;3;;;;;;;10.86;83.32129;943.2266;;;;
2022/10/30 02:41:25;;;;;;;8.8;3.2;;;;;;;10.94;83.12891;943.2087;;;;
2022/10/30 02:43:50;;;;;;;7.1;2.9;;;;;;;10.89;83.10742;943.192;;;;
2022/10/30 02:46:15;;;;;;;7.2;2.8;;;;;;;11.01;82.62891;943.2166;;;;
2022/10/30 02:48:45;;;;;;;5.8;3;;;;;;;11.06;82.29492;943.171;;;;
2022/10/30 02:51:11;;;;;;;7.8;3.5;;;;;;;11.1;82.24414;943.2689;;;;
2022/10/30 02:53:35;;;;;;;8.7;3.4;;;;;;;11.15;81.7627;943.1947;;;;
2022/10/30 02:56:02;;;;;;;7.7;2.8;;;;;;;11.05;82.11133;943.1853;;;;
2022/10/30 02:58:27;;;;;;;5.8;2.4;;;;;;;11.14;81.5918;943.1778;;;;
2022/10/30 03:00:55;;;;;;;9.1;3.3;;;;;;;11.18;81.28809;943.1042;;;;
2022/10/30 03:03:23;;;;;;;9.6;3.4;;;;;;;11.18;81.23242;943.1482;;;;
2022/10/30 03:05:48;;;;;;;12.4;3.5;;;;;;;11;82.03125;943.1259;;;;
2022/10/30 03:08:14;;;;;;;11.7;3.4;;;;;;;10.87;82.89844;943.0784;;;;
2022/10/30 03:10:39;;;;;;;8.1;3;;;;;;;10.95;82.37891;943.1508;;;;
2022/10/30 03:13:04;;;;;;;5.7;3;;;;;;;11;81.94141;943.1435;;;;
2022/10/30 03:15:33;;;;;;;8.5;3.2;;;;;;;11.05;81.90234;943.17;;;;
2022/10/30 03:18:00;;;;;;;6.6;2.9;;;;;;;10.87;82.7959;943.19;;;;
2022/10/30 03:20:25;;;;;;;9.9;3.2;;;;;;;10.88;82.5918;943.2029;;;;
2022/10/30 03:22:53;;;;;;;9.2;3.3;;;;;;;10.9;81.84277;943.1675;;;;
2022/10/30 03:25:22;;;;;;;7.6;2.6;;;;;;;11.01;81.42871;943.2346;;;;
2022/10/30 03:27:43;;;;;;;7.4;2.7;;;;;;;11.02;81.23633;943.1808;;;;
2022/10/30 03:30:12;;;;;;;9.4;3.5;;;;;;;10.98;81.50195;943.1719;;;;
2022/10/30 03:32:37;;;;;;;6.6;2.8;;;;;;;10.98;81.6748;943.2405;;;;
2022/10/30 03:35:02;;;;;;;9.4;3.4;;;;;;;10.75;82.72754;943.2228;;;;
2022/10/30 03:37:27;;;;;;;11.3;2.7;;;;;;;10.57;84.09766;943.2394;;;;
2022/10/30 03:39:52;;;;;;;8.4;3;;;;;;;10.6;84.0459;943.2575;;;;
2022/10/30 03:42:20;;;;;;;9.4;2.8;;;;;;;10.6;83.94238;943.2623;;;;
2022/10/30 03:44:45;;;;;;;7.4;3.7;;;;;;;10.58;84.32715;943.2539;;;;
2022/10/30 03:47:11;;;;;;;9.6;3;;;;;;;10.64;83.87109;943.2491;;;;
2022/10/30 03:49:36;;;;;;;11.4;3.2;;;;;;;10.77;83.1875;943.2249;;;;
2022/10/30 03:52:04;;;;;;;10.1;3.5;;;;;;;10.69;83.29785;943.2633;;;;
2022/10/30 03:54:29;;;;;;;6.8;3.2;;;;;;;10.71;83.36035;943.2907;;;;
2022/10/30 03:56:56;;;;;;;6.5;2.8;;;;;;;10.66;83.63477;943.262;;;;
2022/10/30 03:59:21;;;;;;;8.6;2.9;;;;;;;10.64;83.87109;943.2267;;;;
2022/10/30 04:02:40;;;;;;;9.3;2.9;;;;;;;10.57;84.53125;943.1941;;;;
2022/10/30 04:05:05;;;;;;;15.9;3.3;;;;;;;10.67;83.78516;943.2653;;;;
2022/10/30 04:07:30;;;;;;;7.1;2.9;;;;;;;10.72;83.51074;943.2416;;;;
2022/10/30 04:09:55;;;;;;;7.3;2.9;;;;;;;10.74;83.09082;943.1447;;;;
2022/10/30 04:12:20;;;;;;;7.4;2.8;;;;;;;10.71;83.09766;943.2183;;;;
2022/10/30 04:14:45;;;;;;;6.4;2.7;;;;;;;10.78;82.73438;943.2592;;;;
2022/10/30 04:17:10;;;;;;;6.4;2.7;;;;;;;10.87;82.20117;943.1351;;;;
2022/10/30 04:19:38;;;;;;;9.2;3;;;;;;;10.71;83.14355;943.1586;;;;
2022/10/30 04:22:03;;;;;;;7.6;2.6;;;;;;;10.62;83.47949;943.212;;;;
2022/10/30 04:24:29;;;;;;;8.6;2.8;;;;;;;10.7;83.07129;943.2236;;;;
2022/10/30 04:27:26;;;;;;;7.3;2.4;;;;;;;10.72;82.75684;943.1189;;;;
2022/10/30 04:29:55;;;;;;;7.2;2.7;;;;;;;10.83;82.28613;943.1456;;;;
2022/10/30 04:32:20;;;;;;;8.9;2.8;;;;;;;10.85;82.10645;943.1572;;;;
2022/10/30 04:34:52;;;;;;;6.3;3.1;;;;;;;10.76;82.60352;943.1434;;;;
2022/10/30 04:37:14;;;;;;;9.3;3.3;;;;;;;10.74;82.74805;943.1437;;;;
2022/10/30 04:39:47;;;;;;;8.3;3.3;;;;;;;10.82;82.64844;943.1239;;;;
2022/10/30 04:42:09;;;;;;;6.6;2.7;;;;;;;10.83;82.48047;943.074;;;;
2022/10/30 04:44:36;;;;;;;12.6;3.5;;;;;;;10.8;82.29004;943.0994;;;;
2022/10/30 04:47:01;;;;;;;10.1;2.9;;;;;;;10.79;82.46191;942.9846;;;;
2022/10/30 04:49:31;;;;;;;5.7;2.9;;;;;;;10.73;82.79395;943.041;;;;
2022/10/30 04:52:00;;;;;;;9.3;2.8;;;;;;;10.74;83;943.046;;;;
2022/10/30 04:54:26;;;;;;;6.6;2.9;;;;;;;10.7;82.51172;943.0197;;;;
2022/10/30 04:56:52;;;;;;;8.4;3.2;;;;;;;10.7;82.70703;943.0302;;;;
2022/10/30 04:59:17;;;;;;;6.5;3.3;;;;;;;10.76;82.5918;942.9936;;;;
2022/10/30 05:01:45;;;;;;;9.6;3;;;;;;;10.85;82.23242;942.9827;;;;
2022/10/30 05:04:10;;;;;;;8.6;2.8;;;;;;;10.98;81.43359;942.9392;;;;
2022/10/30 05:06:35;;;;;;;8.5;3.4;;;;;;;11.03;81.04395;942.8797;;;;
2022/10/30 05:09:04;;;;;;;10;3.1;;;;;;;11;81.08398;942.9459;;;;
2022/10/30 05:11:32;;;;;;;6.8;2.7;;;;;;;10.97;81.26172;942.9009;;;;
2022/10/30 05:13:57;;;;;;;7.3;3.9;;;;;;;10.9;81.29199;942.9228;;;;
2022/10/30 05:16:22;;;;;;;10;4.5;;;;;;;10.89;81.08691;942.8997;;;;
2022/10/30 05:18:49;;;;;;;26.4;11.7;;;;;;;10.78;81.47754;942.9191;;;;
2022/10/30 05:21:14;;;;;;;32.5;13.2;;;;;;;10.65;81.88574;942.9258;;;;
2022/10/30 05:23:41;;;;;;;17.1;7;;;;;;;10.65;82.25195;942.9059;;;;
2022/10/30 05:26:09;;;;;;;14;5.3;;;;;;;10.76;81.84961;942.8766;;;;
2022/10/30 05:28:38;;;;;;;10.8;4.6;;;;;;;10.73;82.00391;942.7573;;;;
2022/10/30 05:31:03;;;;;;;7.6;3.5;;;;;;;10.78;82.17285;942.8489;;;;
2022/10/30 05:33:31;;;;;;;9.7;3.7;;;;;;;10.88;81.59766;942.8619;;;;
2022/10/30 05:36:02;;;;;;;9.4;2.8;;;;;;;10.99;80.94531;942.764;;;;
2022/10/30 05:38:27;;;;;;;8.4;2.9;;;;;;;11.07;80.45605;942.8117;;;;
2022/10/30 05:40:55;;;;;;;8.9;4.1;;;;;;;10.98;80.38379;942.7983;;;;
2022/10/30 05:43:20;;;;;;;7.8;3.6;;;;;;;10.88;80.84473;942.8485;;;;
2022/10/30 05:45:49;;;;;;;10.7;3.6;;;;;;;10.92;80.49707;942.8475;;;;
2022/10/30 05:48:20;;;;;;;6.8;3.5;;;;;;;11.01;80.10156;942.8074;;;;
2022/10/30 05:50:46;;;;;;;10.1;3.5;;;;;;;11.02;79.78418;942.89;;;;
2022/10/30 05:53:11;;;;;;;9.8;4.3;;;;;;;10.96;80.03516;942.8816;;;;
2022/10/30 05:55:36;;;;;;;7.7;3.2;;;;;;;10.93;80.18848;942.8865;;;;
2022/10/30 05:58:06;;;;;;;8.6;3.3;;;;;;;10.98;80.21191;942.8477;;;;
2022/10/30 06:00:35;;;;;;;7.8;3.6;;;;;;;11.04;79.91309;942.7834;;;;
2022/10/30 06:03:01;;;;;;;7.8;3.4;;;;;;;10.97;81.38574;942.8427;;;;
2022/10/30 06:05:28;;;;;;;9.7;3.2;;;;;;;11.01;81.36035;942.8201;;;;
2022/10/30 06:07:54;;;;;;;8.1;3;;;;;;;10.94;81.83789;942.7944;;;;
2022/10/30 06:10:22;;;;;;;10.1;2.8;;;;;;;11.05;81.02441;942.7676;;;;
2022/10/30 06:12:47;;;;;;;5.1;2.4;;;;;;;11.1;80.2334;942.7198;;;;
2022/10/30 06:15:15;;;;;;;11.3;3.5;;;;;;;11.16;79.92578;942.7668;;;;
2022/10/30 06:17:40;;;;;;;10.7;4.3;;;;;;;11.04;80.62207;942.7803;;;;
2022/10/30 06:20:05;;;;;;;12;4.9;;;;;;;11.14;81.24707;942.7856;;;;
2022/10/30 06:22:31;;;;;;;10.9;3.9;;;;;;;11.18;80.4209;942.7783;;;;
2022/10/30 06:24:58;;;;;;;10.7;4;;;;;;;11.24;80.16699;942.7818;;;;
2022/10/30 06:27:23;;;;;;;10;3.4;;;;;;;11.11;80.83008;942.884;;;;
2022/10/30 06:29:53;;;;;;;10.7;3.6;;;;;;;11.17;80.9541;942.8061;;;;
2022/10/30 06:32:16;;;;;;;8;2.6;;;;;;;11.3;80.21387;942.7523;;;;
2022/10/30 06:34:43;;;;;;;9.9;3.4;;;;;;;11.49;79.57324;942.811;;;;
2022/10/30 06:37:07;;;;;;;7;2.7;;;;;;;11.7;78.94727;942.8092;;;;
2022/10/30 06:39:34;;;;;;;8.7;2.6;;;;;;;11.93;77.53418;942.7797;;;;
2022/10/30 06:41:59;;;;;;;8.6;3.3;;;;;;;12.16;76.75098;942.7722;;;;
2022/10/30 06:44:30;;;;;;;8.8;4.1;;;;;;;12.48;75.54492;942.7727;;;;
2022/10/30 06:46:55;;;;;;;8.1;3.3;;;;;;;12.63;74.72266;942.7904;;;;
2022/10/30 06:49:22;;;;;;;12.7;3;;;;;;;12.59;74.31543;942.7833;;;;
2022/10/30 06:51:47;;;;;;;7.5;3.1;;;;;;;12.74;74.28223;942.8097;;;;
2022/10/30 06:54:16;;;;;;;10.4;3.1;;;;;;;13;73.06445;942.8367;;;;
2022/10/30 06:56:41;;;;;;;8.8;3.1;;;;;;;13.32;71.92188;942.8086;;;;
2022/10/30 06:59:10;;;;;;;9.9;3.1;;;;;;;13.54;70.72949;942.855;;;;
2022/10/30 07:01:44;;;;;;;8.3;3.1;;;;;;;13.73;70.09277;942.7891;;;;
2022/10/30 07:04:09;;;;;;;7.1;2.9;;;;;;;13.8;69.83984;942.8038;;;;
2022/10/30 07:06:36;;;;;;;8.4;3;;;;;;;14.01;69.22852;942.7944;;;;
2022/10/30 07:09:01;;;;;;;8.9;3.1;;;;;;;14.18;68.59961;942.8633;;;;
2022/10/30 07:11:30;;;;;;;10.4;3.6;;;;;;;14.38;68.57324;942.8233;;;;
2022/10/30 07:14:01;;;;;;;9.5;4;;;;;;;14.58;67.75195;942.7545;;;;
2022/10/30 07:16:28;;;;;;;9.9;3.2;;;;;;;14.78;66.57324;942.8271;;;;
2022/10/30 07:18:56;;;;;;;7;2.8;;;;;;;15.01;65.38379;942.8451;;;;
2022/10/30 07:21:25;;;;;;;8.6;3;;;;;;;15.17;64.19629;942.8709;;;;
2022/10/30 07:23:55;;;;;;;8.5;2.7;;;;;;;15.63;62.46191;942.861;;;;
2022/10/30 07:26:24;;;;;;;8.6;3.1;;;;;;;16.03;61.73242;942.8635;;;;
2022/10/30 07:28:49;;;;;;;8.1;3.1;;;;;;;16.37;60.9375;942.8805;;;;
2022/10/30 07:31:14;;;;;;;8.4;3;;;;;;;16.56;59.41113;942.8725;;;;
2022/10/30 07:33:44;;;;;;;7.1;3;;;;;;;16.7;59.03711;942.9059;;;;
2022/10/30 07:36:09;;;;;;;6.2;2.6;;;;;;;17.1;57.36328;942.8127;;;;
2022/10/30 07:38:42;;;;;;;8.6;3.2;;;;;;;17.49;56.71777;942.8958;;;;
2022/10/30 07:41:12;;;;;;;9.2;2.9;;;;;;;17.89;55.74805;942.9158;;;;
2022/10/30 07:43:37;;;;;;;10.2;3.7;;;;;;;18.02;55.14844;942.8389;;;;
2022/10/30 07:46:05;;;;;;;8.3;2.2;;;;;;;18.45;53.87793;942.8387;;;;
2022/10/30 07:48:30;;;;;;;8.4;2.5;;;;;;;18.43;53.01367;942.8279;;;;
2022/10/30 07:51:01;;;;;;;8.7;3.1;;;;;;;18.68;53.66113;942.7967;;;;
2022/10/30 07:53:31;;;;;;;7.8;3;;;;;;;18.86;52.6709;942.7766;;;;
2022/10/30 07:55:56;;;;;;;6.6;2.1;;;;;;;19.05;50.91211;942.7166;;;;
2022/10/30 07:58:23;;;;;;;8.5;3;;;;;;;19.39;49.49512;942.7758;;;;
2022/10/30 08:00:48;;;;;;;9.2;2.6;;;;;;;19.65;48.54395;942.7422;;;;
2022/10/30 08:03:16;;;;;;;8;2.7;;;;;;;20.07;47.27246;942.7307;;;;
2022/10/30 08:05:42;;;;;;;8.3;2;;;;;;;20.44;46.80957;942.7659;;;;
2022/10/30 08:08:14;;;;;;;9.4;2.5;;;;;;;21.01;46.58887;942.714;;;;
2022/10/30 08:10:39;;;;;;;6.3;2.5;;;;;;;21.38;45.7041;942.6799;;;;
2022/10/30 08:13:09;;;;;;;8.2;2.5;;;;;;;21.61;45.00098;942.7272;;;;
2022/10/30 08:15:39;;;;;;;7.2;2.7;;;;;;;21.65;44.92383;942.6906;;;;
2022/10/30 08:18:04;;;;;;;6.4;2;;;;;;;21.77;45.24023;942.6566;;;;
2022/10/30 08:20:33;;;;;;;5.4;2.3;;;;;;;21.27;45.03711;942.6852;;;;
2022/10/30 08:23:05;;;;;;;7.4;2.4;;;;;;;20.91;47.12695;942.6922;;;;
2022/10/30 08:25:35;;;;;;;10;2.6;;;;;;;20.59;48.00488;942.66;;;;
2022/10/30 08:28:03;;;;;;;6.9;2.2;;;;;;;20.38;48.70605;942.6348;;;;
2022/10/30 08:30:28;;;;;;;7.2;2.1;;;;;;;20.19;48.87207;942.6142;;;;
2022/10/30 08:32:53;;;;;;;5.8;2.2;;;;;;;19.86;49.69824;942.5681;;;;
2022/10/30 08:35:18;;;;;;;7;2.4;;;;;;;19.64;50.61816;942.5347;;;;
2022/10/30 08:37:44;;;;;;;7.2;2.4;;;;;;;19.49;50.96289;942.5142;;;;
2022/10/30 08:40:14;;;;;;;6.2;2.7;;;;;;;19.34;51.5166;942.4755;;;;
2022/10/30 08:42:46;;;;;;;10.5;2.8;;;;;;;19.46;51.34473;942.501;;;;
2022/10/30 08:45:11;;;;;;;7.1;2;;;;;;;19.55;49.99121;942.4698;;;;
2022/10/30 08:47:44;;;;;;;8.2;2.3;;;;;;;19.65;48.73145;942.5199;;;;
2022/10/30 08:50:16;;;;;;;6.8;2.3;;;;;;;19.73;46.47754;942.4805;;;;
2022/10/30 08:52:48;;;;;;;9;2.2;;;;;;;19.92;46.54492;942.4334;;;;
2022/10/30 08:55:21;;;;;;;8;1.9;;;;;;;20.15;48.4834;942.4339;;;;
2022/10/30 08:57:52;;;;;;;6.4;2;;;;;;;20.4;48.37012;942.4208;;;;
2022/10/30 09:00:23;;;;;;;6.6;1.9;;;;;;;20.65;48.29199;942.3619;;;;
2022/10/30 09:02:53;;;;;;;7.8;2.4;;;;;;;20.92;47.88965;942.3438;;;;
2022/10/30 09:05:19;;;;;;;7.3;2.5;;;;;;;21.24;45.46582;942.3311;;;;
2022/10/30 09:07:51;;;;;;;9.2;2.2;;;;;;;21.45;44.31738;942.2541;;;;
2022/10/30 09:10:17;;;;;;;8.9;3.5;;;;;;;21.66;43.37891;942.2461;;;;
2022/10/30 09:12:44;;;;;;;9.9;2.6;;;;;;;21.79;42.18457;942.2598;;;;
2022/10/30 09:15:15;;;;;;;6.9;2.2;;;;;;;22;43.36523;942.1729;;;;
2022/10/30 09:17:45;;;;;;;7.6;2.4;;;;;;;22.52;45.10645;942.1451;;;;
2022/10/30 09:20:21;;;;;;;7.8;1.9;;;;;;;22.79;42.31445;942.2189;;;;
2022/10/30 09:22:46;;;;;;;3.8;1.8;;;;;;;23;41.67773;942.1714;;;;
2022/10/30 09:25:17;;;;;;;6.9;1.9;;;;;;;23.2;40.27344;942.1807;;;;
2022/10/30 09:27:46;;;;;;;6.9;2.2;;;;;;;23.34;40.0625;942.1592;;;;
2022/10/30 09:30:11;;;;;;;9;2.3;;;;;;;23.54;40.94043;942.125;;;;
2022/10/30 09:32:36;;;;;;;7.4;2.1;;;;;;;23.93;40.95215;942.113;;;;
2022/10/30 09:35:01;;;;;;;5.2;1.8;;;;;;;24.45;40.66895;942.1178;;;;
2022/10/30 09:37:26;;;;;;;7.3;2.1;;;;;;;25.02;38.5498;942.15;;;;
2022/10/30 09:39:52;;;;;;;5.6;1.7;;;;;;;25.67;37.21191;942.1096;;;;
2022/10/30 09:42:17;;;;;;;8.6;2.2;;;;;;;26.1;34.32617;942.0631;;;;
2022/10/30 09:44:46;;;;;;;5.7;2.1;;;;;;;26.33;34.69824;942.0636;;;;
2022/10/30 09:47:11;;;;;;;5.3;2.3;;;;;;;26.12;34.83594;942.1096;;;;
2022/10/30 09:49:41;;;;;;;6.2;2.5;;;;;;;25.5;36.22949;942.0575;;;;
2022/10/30 09:52:08;;;;;;;7.8;2;;;;;;;25.26;37;942.105;;;;
2022/10/30 09:54:35;;;;;;;10.2;2.1;;;;;;;24.63;36.37207;942.1223;;;;
2022/10/30 09:57:01;;;;;;;5.6;2.1;;;;;;;24.34;36.67773;942.0687;;;;
2022/10/30 09:59:28;;;;;;;7.4;2.1;;;;;;;24.13;37.96777;942.0342;;;;
2022/10/30 10:01:58;;;;;;;7.9;2.7;;;;;;;24.22;37.00977;942.0472;;;;
2022/10/30 10:04:26;;;;;;;7;2.2;;;;;;;24.15;33.7998;942.0011;;;;
2022/10/30 10:06:51;;;;;;;5.6;1.8;;;;;;;24.33;33.98926;941.9227;;;;
2022/10/30 10:09:16;;;;;;;8.8;2;;;;;;;24.65;34.5332;942.0217;;;;
2022/10/30 10:11:45;;;;;;;8.2;2.6;;;;;;;24.47;35.13184;941.9436;;;;
2022/10/30 10:14:10;;;;;;;5.7;2;;;;;;;24.46;36.27539;941.9431;;;;
2022/10/30 10:16:36;;;;;;;7.8;2.5;;;;;;;24.47;34.95508;941.9475;;;;
2022/10/30 10:19:00;;;;;;;7.7;2.3;;;;;;;24.5;35.45215;941.9603;;;;
2022/10/30 10:21:25;;;;;;;7.6;2.1;;;;;;;24.34;34.12109;941.8586;;;;
2022/10/30 10:23:50;;;;;;;7;2.2;;;;;;;24.2;33.96875;941.895;;;;
2022/10/30 10:26:16;;;;;;;5;1.9;;;;;;;24.4;34.79688;941.8986;;;;
2022/10/30 10:28:42;;;;;;;7;2;;;;;;;24.42;33.06641;941.9653;;;;
2022/10/30 10:31:08;;;;;;;7.5;2.2;;;;;;;24.51;33.02539;941.9453;;;;
2022/10/30 10:33:33;;;;;;;7.9;1.7;;;;;;;24.79;33.91895;941.8931;;;;
2022/10/30 10:35:58;;;;;;;7.2;1.9;;;;;;;25.05;33.24316;941.8645;;;;
2022/10/30 10:38:23;;;;;;;7.1;2.1;;;;;;;25.32;33.4873;941.7933;;;;
2022/10/30 10:40:49;;;;;;;6.2;2;;;;;;;25.64;33.32227;941.7787;;;;
2022/10/30 10:43:14;;;;;;;4.7;1.7;;;;;;;25.94;32.28027;941.7383;;;;
2022/10/30 10:45:42;;;;;;;5.2;1.9;;;;;;;26.16;33.53809;941.682;;;;
2022/10/30 10:48:07;;;;;;;9.5;2.1;;;;;;;26.45;34.0459;941.7104;;;;
2022/10/30 10:50:51;;;;;;;11.6;2.1;;;;;;;27.03;33.58008;941.6724;;;;
2022/10/30 10:53:17;;;;;;;5.4;1.8;;;;;;;27.28;33.20703;941.6328;;;;
2022/10/30 10:55:42;;;;;;;5.5;1.6;;;;;;;27.72;32.55078;941.6569;;;;
2022/10/30 10:58:07;;;;;;;5.2;1.5;;;;;;;27.94;31.22461;941.5859;;;;
2022/10/30 11:00:32;;;;;;;6.3;2.1;;;;;;;28.58;30.56738;941.6172;;;;
2022/10/30 11:02:57;;;;;;;5.8;1.8;;;;;;;28.87;28.33789;941.5593;;;;
2022/10/30 11:05:24;;;;;;;6.5;1.9;;;;;;;28.98;28.35645;941.5073;;;;
2022/10/30 11:07:49;;;;;;;5;2;;;;;;;29.33;27.98535;941.5188;;;;
2022/10/30 11:10:14;;;;;;;5.6;1.9;;;;;;;29.82;27.56152;941.5259;;;;
2022/10/30 11:12:40;;;;;;;8.4;1.9;;;;;;;29.83;26.57324;941.4799;;;;
2022/10/30 11:15:05;;;;;;;9.8;2.1;;;;;;;29.96;26.4502;941.4318;;;;
2022/10/30 11:17:33;;;;;;;5.8;1.9;;;;;;;30.18;27.38086;941.389;;;;
2022/10/30 11:20:00;;;;;;;4.7;2;;;;;;;30.08;27.97266;941.416;;;;
2022/10/30 11:22:25;;;;;;;5.8;1.8;;;;;;;30.01;28.62402;941.3839;;;;
2022/10/30 11:24:50;;;;;;;5.6;1.5;;;;;;;30.2;28.26563;941.3752;;;;
2022/10/30 11:27:15;;;;;;;4.3;1.6;;;;;;;30.3;28.24805;941.3554;;;;
2022/10/30 11:34:33;;;;;;;5;1.5;;;;;;;31.87;29.67676;941.3441;;;;
2022/10/30 11:36:59;;;;;;;6.9;1.7;;;;;;;32.71;28.53125;941.4091;;;;
2022/10/30 11:39:24;;;;;;;5.9;1.8;;;;;;;33.53;27.53613;941.3862;;;;
2022/10/30 11:41:53;;;;;;;5.6;2.1;;;;;;;34.69;25.88281;941.3709;;;;
2022/10/30 11:44:27;;;;;;;5.3;1.8;;;;;;;36.46;23.36914;941.3221;;;;
2022/10/30 11:46:52;;;;;;;3.3;1.5;;;;;;;37.78;20.75391;941.3177;;;;
2022/10/30 11:50:45;;;;;;;4.2;1.6;;;;;;;37.71;21.74609;941.2937;;;;
2022/10/30 11:52:58;;;;;;;5.7;2;;;;;;;39.33;19.66699;941.3133;;;;
2022/10/30 11:55:24;;;;;;;5.3;1.8;;;;;;;39.53;19.94336;941.2569;;;;
2022/10/30 11:57:55;;;;;;;6.8;1.7;;;;;;;40.44;18.17578;941.274;;;;
2022/10/30 12:00:23;;;;;;;5.9;1.9;;;;;;;40.81;16.79785;941.2213;;;;
2022/10/30 12:02:53;;;;;;;6.1;1.9;;;;;;;41.84;16.22266;941.2595;;;;
2022/10/30 12:05:18;;;;;;;5.2;1.7;;;;;;;42.36;16.80469;941.2488;;;;
2022/10/30 12:07:43;;;;;;;4.6;1.8;;;;;;;43.48;15.39551;941.2022;;;;
2022/10/30 12:10:09;;;;;;;5.1;2.2;;;;;;;43.96;14.93164;941.1653;;;;
2022/10/30 12:12:34;;;;;;;7.5;2.1;;;;;;;44.57;14.50879;941.1219;;;;
2022/10/30 12:15:01;;;;;;;7.1;2.1;;;;;;;45.01;14.2998;941.1208;;;;
2022/10/30 12:17:26;;;;;;;9.8;2.4;;;;;;;45.38;13.84277;941.1014;;;;
2022/10/30 12:19:52;;;;;;;4.6;1.8;;;;;;;46.2;13.45898;941.1094;;;;
2022/10/30 12:22:23;;;;;;;4.6;2;;;;;;;46.32;13.4502;941.1002;;;;
2022/10/30 12:24:51;;;;;;;7.3;2.2;;;;;;;44.8;14.34277;941.0017;;;;
2022/10/30 12:27:20;;;;;;;5.8;2.2;;;;;;;45.27;13.92578;941.035;;;;
2022/10/30 12:29:45;;;;;;;7.3;2.2;;;;;;;44.49;14.62891;940.9822;;;;
2022/10/30 12:35:59;;;;;;;6.8;2.7;;;;;;;44.36;14.80957;941.0126;;;;
2022/10/30 12:38:24;;;;;;;5.8;2;;;;;;;45.35;14.1377;940.9817;;;;
2022/10/30 12:40:49;;;;;;;5.8;2.2;;;;;;;45.82;13.63281;941.0005;;;;
2022/10/30 12:43:15;;;;;;;7;2;;;;;;;45.29;14.2832;940.962;;;;
2022/10/30 12:45:45;;;;;;;8.6;2.8;;;;;;;45.87;13.48633;940.9383;;;;
2022/10/30 12:48:10;;;;;;;7.7;2.1;;;;;;;46.17;13.49512;940.938;;;;
2022/10/30 12:50:39;;;;;;;3.9;2;;;;;;;45.37;13.80469;940.7947;;;;
2022/10/30 12:53:07;;;;;;;7;2.3;;;;;;;45.72;14.0127;940.9039;;;;
2022/10/30 12:55:33;;;;;;;5.4;2.1;;;;;;;46.15;13.66699;940.8896;;;;
2022/10/30 12:57:58;;;;;;;5.9;2.5;;;;;;;45.37;14.74316;940.7896;;;;
2022/10/30 13:00:25;;;;;;;4.2;2.1;;;;;;;45;15.02734;940.8002;;;;
2022/10/30 13:02:50;;;;;;;7.5;2;;;;;;;44.66;15.34863;940.7778;;;;
2022/10/30 13:05:22;;;;;;;5.4;2;;;;;;;43.75;15.41699;940.7533;;;;
2022/10/30 13:07:49;;;;;;;9.2;2.6;;;;;;;43.66;15.34082;940.7347;;;;
2022/10/30 13:10:19;;;;;;;10.2;2.7;;;;;;;43.99;15.08008;940.7395;;;;
2022/10/30 13:12:46;;;;;;;6.6;2.4;;;;;;;44.75;14.09473;940.6926;;;;
2022/10/30 13:15:11;;;;;;;7.1;2.3;;;;;;;44.44;14.28223;940.6769;;;;
2022/10/30 13:17:38;;;;;;;8.2;1.9;;;;;;;44.75;14.23047;940.6656;;;;
2022/10/30 13:20:10;;;;;;;5.8;2;;;;;;;44.04;14.70117;940.6842;;;;
2022/10/30 13:22:35;;;;;;;8.1;1.8;;;;;;;44.53;14.4082;940.6781;;;;
2022/10/30 13:25:02;;;;;;;5.5;2;;;;;;;44.98;13.9541;940.6414;;;;
2022/10/30 13:27:30;;;;;;;11.7;2.6;;;;;;;45.32;13.71777;940.6311;;;;
2022/10/30 13:29:55;;;;;;;3.1;1.7;;;;;;;45.09;13.59961;940.6099;;;;
2022/10/30 13:32:23;;;;;;;7;2.1;;;;;;;44.55;14.24902;940.6079;;;;
2022/10/30 13:35:56;;;;;;;5.8;2;;;;;;;45.05;14.01758;940.5786;;;;
2022/10/30 13:38:21;;;;;;;4.8;2;;;;;;;45.43;13.70801;940.6323;;;;
2022/10/30 13:40:46;;;;;;;7.7;2.2;;;;;;;45.49;13.61133;940.603;;;;
2022/10/30 13:43:14;;;;;;;5.5;2.1;;;;;;;45.24;13.5918;940.6003;;;;
2022/10/30 13:46:06;;;;;;;7.8;2.3;;;;;;;45.18;13.68848;940.6191;;;;
2022/10/30 13:48:13;;;;;;;6.9;2.2;;;;;;;44.94;13.86621;940.6251;;;;
2022/10/30 13:59:28;;;;;;;5.3;1.5;;;;;;;44.36;14.23047;940.5731;;;;
2022/10/30 14:01:59;;;;;;;7.2;1.9;;;;;;;44.16;14.33496;940.6121;;;;
2022/10/30 14:04:24;;;;;;;5.5;2.1;;;;;;;43.84;14.65723;940.6283;;;;
2022/10/30 14:06:49;;;;;;;5.3;1.9;;;;;;;43.7;14.48145;940.5987;;;;
2022/10/30 14:09:14;;;;;;;8.2;2;;;;;;;43.29;14.86133;940.5901;;;;
2022/10/30 14:11:41;;;;;;;5.8;2;;;;;;;43.08;14.83008;940.6141;;;;
2022/10/30 14:14:06;;;;;;;5.2;1.8;;;;;;;42.92;14.87402;940.6399;;;;
2022/10/30 14:16:31;;;;;;;7.7;2;;;;;;;42.73;15.1875;940.5911;;;;
2022/10/30 14:19:16;;;;;;;7.7;2.4;;;;;;;42.43;15.27539;940.6256;;;;
2022/10/30 14:21:46;;;;;;;5.4;2.2;;;;;;;41.88;15.63672;940.6523;;;;
2022/10/30 14:24:10;;;;;;;7.7;2.3;;;;;;;41.26;15.95801;940.6205;;;;
2022/10/30 14:26:37;;;;;;;5.7;2.5;;;;;;;40.42;17.07617;940.5916;;;;
2022/10/30 14:29:02;;;;;;;5.2;1.5;;;;;;;39.83;17.51855;940.5823;;;;
2022/10/30 14:31:27;;;;;;;7.2;1.9;;;;;;;39.85;17.55566;940.6028;;;;
2022/10/30 14:33:52;;;;;;;9.7;2.1;;;;;;;38.59;19.17383;940.6239;;;;
2022/10/30 14:36:19;;;;;;;9;1.8;;;;;;;37.71;20.39844;940.6269;;;;
2022/10/30 14:38:47;;;;;;;5.6;2.3;;;;;;;37.24;20.81445;940.6183;;;;
2022/10/30 14:41:12;;;;;;;4;2.2;;;;;;;36.57;21.26758;940.5726;;;;
2022/10/30 14:43:37;;;;;;;6.7;1.8;;;;;;;35.9;22.07129;940.5299;;;;
2022/10/30 14:46:02;;;;;;;8.4;2.2;;;;;;;35.12;22.72168;940.5313;;;;